sensor_id;sensor_type;location;lat;lon;timestamp;pressure;altitude;pressure_sealevel;temperature;humidity
65758;BME280;52495;52.208;5.158;2022-12-07T00:00:44;101808.47;;;4.08;93.90
65758;BME280;52495;52.208;5.158;2022-12-07T00:03:10;101806.88;;;4.14;94.12
65758;BME280;52495;52.208;5.158;2022-12-07T00:05:37;101803.56;;;4.16;93.55
65758;BME280;52495;52.208;5.158;2022-12-07T00:08:05;101812.88;;;4.14;93.31
65758;BME280;52495;52.208;5.158;2022-12-07T00:10:33;101811.97;;;4.12;93.26
65758;BME280;52495;52.208;5.158;2022-12-07T00:12:59;101805.94;;;4.10;93.39
65758;BME280;52495;52.208;5.158;2022-12-07T00:15:26;101805.94;;;4.08;92.90
65758;BME280;52495;52.208;5.158;2022-12-07T00:17:53;101804.25;;;4.10;93.25
65758;BME280;52495;52.208;5.158;2022-12-07T00:20:20;101800.91;;;4.13;93.29
65758;BME280;52495;52.208;5.158;2022-12-07T00:22:46;101794.16;;;4.15;93.69
65758;BME280;52495;52.208;5.158;2022-12-07T00:25:14;101784.78;;;4.16;93.32
65758;BME280;52495;52.208;5.158;2022-12-07T00:27:41;101783.84;;;4.12;92.83
65758;BME280;52495;52.208;5.158;2022-12-07T00:30:08;101788.81;;;4.06;92.37
65758;BME280;52495;52.208;5.158;2022-12-07T00:32:35;101788.72;;;4.03;92.35
65758;BME280;52495;52.208;5.158;2022-12-07T00:35:02;101784.38;;;3.99;92.39
65758;BME280;52495;52.208;5.158;2022-12-07T00:37:29;101783.47;;;3.97;92.23
65758;BME280;52495;52.208;5.158;2022-12-07T00:39:55;101774.91;;;3.94;92.19
65758;BME280;52495;52.208;5.158;2022-12-07T00:42:23;101774.66;;;3.85;91.64
65758;BME280;52495;52.208;5.158;2022-12-07T00:44:50;101776.31;;;3.83;91.56
65758;BME280;52495;52.208;5.158;2022-12-07T00:47:17;101776.13;;;3.75;91.48
65758;BME280;52495;52.208;5.158;2022-12-07T00:49:43;101774.31;;;3.71;91.50
65758;BME280;52495;52.208;5.158;2022-12-07T00:52:10;101766.47;;;3.65;91.54
65758;BME280;52495;52.208;5.158;2022-12-07T00:54:37;101773.94;;;3.57;91.76
65758;BME280;52495;52.208;5.158;2022-12-07T00:57:03;101781.47;;;3.53;91.75
65758;BME280;52495;52.208;5.158;2022-12-07T00:59:32;101776.25;;;3.48;92.10
65758;BME280;52495;52.208;5.158;2022-12-07T01:01:58;101779.66;;;3.48;92.20
65758;BME280;52495;52.208;5.158;2022-12-07T01:04:25;101780.34;;;3.41;91.91
65758;BME280;52495;52.208;5.158;2022-12-07T01:06:52;101779.44;;;3.41;91.81
65758;BME280;52495;52.208;5.158;2022-12-07T01:09:19;101772.53;;;3.37;91.93
65758;BME280;52495;52.208;5.158;2022-12-07T01:11:45;101776.69;;;3.33;91.88
65758;BME280;52495;52.208;5.158;2022-12-07T01:14:12;101770.66;;;3.31;92.09
65758;BME280;52495;52.208;5.158;2022-12-07T01:16:40;101771.38;;;3.25;92.24
65758;BME280;52495;52.208;5.158;2022-12-07T01:19:07;101768.78;;;3.24;92.08
65758;BME280;52495;52.208;5.158;2022-12-07T01:21:34;101769.53;;;3.21;92.19
65758;BME280;52495;52.208;5.158;2022-12-07T01:24:03;101784.03;;;3.22;92.30
65758;BME280;52495;52.208;5.158;2022-12-07T01:26:31;101782.28;;;3.19;91.73
65758;BME280;52495;52.208;5.158;2022-12-07T01:28:57;101779.63;;;3.16;91.64
65758;BME280;52495;52.208;5.158;2022-12-07T01:31:27;101780.41;;;3.14;91.76
65758;BME280;52495;52.208;5.158;2022-12-07T01:33:56;101787.97;;;3.11;91.79
65758;BME280;52495;52.208;5.158;2022-12-07T01:36:25;101780.94;;;3.03;91.78
65758;BME280;52495;52.208;5.158;2022-12-07T01:38:55;101780.94;;;3.03;92.23
65758;BME280;52495;52.208;5.158;2022-12-07T01:41:24;101792.78;;;3.01;92.29
65758;BME280;52495;52.208;5.158;2022-12-07T01:44:15;101797.25;;;3.07;92.21
65758;BME280;52495;52.208;5.158;2022-12-07T01:46:44;101794.00;;;3.13;92.64
65758;BME280;52495;52.208;5.158;2022-12-07T01:49:16;101801.88;;;3.21;93.98
65758;BME280;52495;52.208;5.158;2022-12-07T01:51:46;101799.44;;;3.25;96.52
65758;BME280;52495;52.208;5.158;2022-12-07T01:54:14;101792.72;;;3.29;97.87
65758;BME280;52495;52.208;5.158;2022-12-07T01:56:44;101786.53;;;3.51;97.32
65758;BME280;52495;52.208;5.158;2022-12-07T01:59:13;101777.50;;;3.62;97.84
65758;BME280;52495;52.208;5.158;2022-12-07T02:01:41;101771.91;;;3.77;97.58
65758;BME280;52495;52.208;5.158;2022-12-07T02:04:08;101774.72;;;3.88;97.65
65758;BME280;52495;52.208;5.158;2022-12-07T02:06:37;101774.06;;;3.95;96.66
65758;BME280;52495;52.208;5.158;2022-12-07T02:09:04;101779.38;;;4.03;96.42
65758;BME280;52495;52.208;5.158;2022-12-07T02:11:31;101766.69;;;4.06;96.12
65758;BME280;52495;52.208;5.158;2022-12-07T02:13:58;101767.59;;;4.08;95.37
65758;BME280;52495;52.208;5.158;2022-12-07T02:16:30;101770.16;;;4.10;95.03
65758;BME280;52495;52.208;5.158;2022-12-07T02:19:20;101765.06;;;4.10;94.59
65758;BME280;52495;52.208;5.158;2022-12-07T02:21:59;101765.03;;;4.08;93.98
65758;BME280;52495;52.208;5.158;2022-12-07T02:24:43;101758.88;;;4.02;93.42
65758;BME280;52495;52.208;5.158;2022-12-07T02:27:28;101758.75;;;3.95;93.04
65758;BME280;52495;52.208;5.158;2022-12-07T02:30:04;101758.63;;;3.91;92.77
65758;BME280;52495;52.208;5.158;2022-12-07T02:32:41;101766.94;;;3.82;92.43
65758;BME280;52495;52.208;5.158;2022-12-07T02:35:11;101760.84;;;3.77;92.86
65758;BME280;52495;52.208;5.158;2022-12-07T02:37:45;101759.03;;;3.73;93.13
65758;BME280;52495;52.208;5.158;2022-12-07T02:40:19;101758.94;;;3.70;93.17
65758;BME280;52495;52.208;5.158;2022-12-07T02:42:50;101752.91;;;3.68;94.03
65758;BME280;52495;52.208;5.158;2022-12-07T02:45:21;101749.47;;;3.66;93.77
65758;BME280;52495;52.208;5.158;2022-12-07T02:47:51;101759.63;;;3.64;94.05
65758;BME280;52495;52.208;5.158;2022-12-07T02:50:20;101767.41;;;3.69;93.76
65758;BME280;52495;52.208;5.158;2022-12-07T02:52:47;101770.94;;;3.72;94.61
65758;BME280;52495;52.208;5.158;2022-12-07T02:55:15;101756.63;;;3.79;94.80
65758;BME280;52495;52.208;5.158;2022-12-07T02:57:55;101752.56;;;3.87;95.39
65758;BME280;52495;52.208;5.158;2022-12-07T03:00:31;101759.50;;;3.91;95.61
65758;BME280;52495;52.208;5.158;2022-12-07T03:03:05;101756.22;;;3.97;95.90
65758;BME280;52495;52.208;5.158;2022-12-07T03:06:01;101764.00;;;4.02;96.21
65758;BME280;52495;52.208;5.158;2022-12-07T03:08:42;101751.38;;;4.08;96.07
65758;BME280;52495;52.208;5.158;2022-12-07T03:11:12;101749.72;;;4.10;96.22
65758;BME280;52495;52.208;5.158;2022-12-07T03:13:47;101748.78;;;4.06;95.29
65758;BME280;52495;52.208;5.158;2022-12-07T03:16:18;101747.88;;;4.04;94.83
65758;BME280;52495;52.208;5.158;2022-12-07T03:18:49;101750.28;;;3.98;93.89
65758;BME280;52495;52.208;5.158;2022-12-07T03:21:20;101749.28;;;3.93;93.76
65758;BME280;52495;52.208;5.158;2022-12-07T03:23:51;101750.91;;;3.88;93.28
65758;BME280;52495;52.208;5.158;2022-12-07T03:26:19;101744.78;;;3.83;93.23
65758;BME280;52495;52.208;5.158;2022-12-07T03:28:51;101750.53;;;3.74;93.03
65758;BME280;52495;52.208;5.158;2022-12-07T03:31:23;101746.13;;;3.68;93.38
65758;BME280;52495;52.208;5.158;2022-12-07T03:33:57;101752.81;;;3.63;93.47
65758;BME280;52495;52.208;5.158;2022-12-07T03:36:29;101749.44;;;3.64;93.70
65758;BME280;52495;52.208;5.158;2022-12-07T03:39:02;101757.09;;;3.64;93.77
65758;BME280;52495;52.208;5.158;2022-12-07T03:41:32;101757.06;;;3.62;93.76
65758;BME280;52495;52.208;5.158;2022-12-07T03:44:01;101760.53;;;3.64;93.45
65758;BME280;52495;52.208;5.158;2022-12-07T03:46:36;101750.16;;;3.60;94.00
65758;BME280;52495;52.208;5.158;2022-12-07T03:49:08;101743.28;;;3.57;94.04
65758;BME280;52495;52.208;5.158;2022-12-07T03:51:42;101744.19;;;3.58;94.35
65758;BME280;52495;52.208;5.158;2022-12-07T03:54:16;101745.00;;;3.57;94.28
65758;BME280;52495;52.208;5.158;2022-12-07T03:56:45;101741.69;;;3.61;94.23
65758;BME280;52495;52.208;5.158;2022-12-07T03:59:14;101738.28;;;3.60;94.17
65758;BME280;52495;52.208;5.158;2022-12-07T04:01:43;101735.66;;;3.59;94.23
65758;BME280;52495;52.208;5.158;2022-12-07T04:04:10;101727.97;;;3.57;94.10
65758;BME280;52495;52.208;5.158;2022-12-07T04:06:37;101729.59;;;3.54;94.10
65758;BME280;52495;52.208;5.158;2022-12-07T04:09:04;101726.03;;;3.48;93.71
65758;BME280;52495;52.208;5.158;2022-12-07T04:11:30;101720.91;;;3.47;93.98
65758;BME280;52495;52.208;5.158;2022-12-07T04:13:57;101719.81;;;3.39;93.36
65758;BME280;52495;52.208;5.158;2022-12-07T04:16:41;101727.47;;;3.37;93.44
65758;BME280;52495;52.208;5.158;2022-12-07T04:19:09;101725.63;;;3.33;93.67
65758;BME280;52495;52.208;5.158;2022-12-07T04:21:36;101733.31;;;3.34;93.96
65758;BME280;52495;52.208;5.158;2022-12-07T04:24:03;101764.16;;;3.42;93.85
65758;BME280;52495;52.208;5.158;2022-12-07T04:26:30;101760.13;;;3.49;93.74
65758;BME280;52495;52.208;5.158;2022-12-07T04:28:56;101758.91;;;3.68;95.49
65758;BME280;52495;52.208;5.158;2022-12-07T04:31:23;101750.19;;;3.95;95.17
65758;BME280;52495;52.208;5.158;2022-12-07T04:33:50;101710.94;;;3.90;95.52
65758;BME280;52495;52.208;5.158;2022-12-07T04:36:18;101727.91;;;3.88;94.59
65758;BME280;52495;52.208;5.158;2022-12-07T04:38:45;101720.38;;;3.94;95.17
65758;BME280;52495;52.208;5.158;2022-12-07T04:41:12;101724.72;;;3.98;95.10
65758;BME280;52495;52.208;5.158;2022-12-07T04:43:39;101717.03;;;3.97;95.83
65758;BME280;52495;52.208;5.158;2022-12-07T04:46:06;101720.53;;;4.00;95.34
65758;BME280;52495;52.208;5.158;2022-12-07T04:48:32;101728.22;;;4.02;95.17
65758;BME280;52495;52.208;5.158;2022-12-07T04:50:59;101727.47;;;4.06;95.05
65758;BME280;52495;52.208;5.158;2022-12-07T04:53:27;101711.28;;;4.05;95.08
65758;BME280;52495;52.208;5.158;2022-12-07T04:55:54;101716.41;;;4.05;94.63
65758;BME280;52495;52.208;5.158;2022-12-07T04:58:20;101713.78;;;4.02;94.30
65758;BME280;52495;52.208;5.158;2022-12-07T05:00:47;101715.44;;;4.02;94.35
65758;BME280;52495;52.208;5.158;2022-12-07T05:03:14;101709.41;;;3.98;93.46
65758;BME280;52495;52.208;5.158;2022-12-07T05:05:41;101717.69;;;3.88;93.62
65758;BME280;52495;52.208;5.158;2022-12-07T05:08:07;101703.13;;;3.85;93.57
65758;BME280;52495;52.208;5.158;2022-12-07T05:10:35;101705.56;;;3.80;93.65
65758;BME280;52495;52.208;5.158;2022-12-07T05:13:02;101708.00;;;3.74;93.65
65758;BME280;52495;52.208;5.158;2022-12-07T05:15:29;101712.97;;;3.70;93.72
65758;BME280;52495;52.208;5.158;2022-12-07T05:17:55;101715.38;;;3.63;93.70
65758;BME280;52495;52.208;5.158;2022-12-07T05:20:22;101708.25;;;3.52;93.58
65758;BME280;52495;52.208;5.158;2022-12-07T05:22:49;101714.09;;;3.47;93.51
65758;BME280;52495;52.208;5.158;2022-12-07T05:25:16;101719.94;;;3.43;93.27
65758;BME280;52495;52.208;5.158;2022-12-07T05:27:44;101711.31;;;3.38;93.25
65758;BME280;52495;52.208;5.158;2022-12-07T05:30:11;101718.19;;;3.41;93.50
65758;BME280;52495;52.208;5.158;2022-12-07T05:32:38;101718.81;;;3.32;93.35
65758;BME280;52495;52.208;5.158;2022-12-07T05:35:05;101717.03;;;3.29;93.71
65758;BME280;52495;52.208;5.158;2022-12-07T05:37:32;101717.03;;;3.29;93.83
65758;BME280;52495;52.208;5.158;2022-12-07T05:39:59;101712.78;;;3.30;93.88
65758;BME280;52495;52.208;5.158;2022-12-07T05:42:25;101705.19;;;3.31;94.05
65758;BME280;52495;52.208;5.158;2022-12-07T05:44:53;101711.16;;;3.33;94.63
65758;BME280;52495;52.208;5.158;2022-12-07T05:47:20;101716.25;;;3.32;94.63
65758;BME280;52495;52.208;5.158;2022-12-07T05:49:47;101716.16;;;3.29;94.68
65758;BME280;52495;52.208;5.158;2022-12-07T05:52:13;101711.03;;;3.27;94.30
65758;BME280;52495;52.208;5.158;2022-12-07T05:54:40;101708.38;;;3.24;94.33
65758;BME280;52495;52.208;5.158;2022-12-07T05:57:07;101710.91;;;3.23;94.50
65758;BME280;52495;52.208;5.158;2022-12-07T05:59:33;101708.31;;;3.21;94.36
65758;BME280;52495;52.208;5.158;2022-12-07T06:02:02;101708.38;;;3.23;94.33
65758;BME280;52495;52.208;5.158;2022-12-07T06:04:30;101707.38;;;3.19;94.46
65758;BME280;52495;52.208;5.158;2022-12-07T06:06:57;101709.19;;;3.22;94.58
65758;BME280;52495;52.208;5.158;2022-12-07T06:09:25;101703.25;;;3.23;94.26
65758;BME280;52495;52.208;5.158;2022-12-07T06:11:53;101713.50;;;3.24;94.31
65758;BME280;52495;52.208;5.158;2022-12-07T06:14:37;101706.56;;;3.20;94.12
65758;BME280;52495;52.208;5.158;2022-12-07T06:17:05;101721.84;;;3.18;94.53
65758;BME280;52495;52.208;5.158;2022-12-07T06:19:32;101711.66;;;3.18;94.59
65758;BME280;52495;52.208;5.158;2022-12-07T06:22:00;101715.84;;;3.16;94.37
65758;BME280;52495;52.208;5.158;2022-12-07T06:24:28;101714.19;;;3.18;94.46
65758;BME280;52495;52.208;5.158;2022-12-07T06:26:54;101719.31;;;3.18;94.45
65758;BME280;52495;52.208;5.158;2022-12-07T06:29:21;101721.78;;;3.17;93.57
65758;BME280;52495;52.208;5.158;2022-12-07T06:31:48;101715.75;;;3.13;93.48
65758;BME280;52495;52.208;5.158;2022-12-07T06:34:17;101713.88;;;3.06;93.53
65758;BME280;52495;52.208;5.158;2022-12-07T06:36:45;101713.06;;;3.09;93.65
65758;BME280;52495;52.208;5.158;2022-12-07T06:39:16;101711.25;;;3.04;94.12
65758;BME280;52495;52.208;5.158;2022-12-07T06:41:43;101715.53;;;3.06;93.83
65758;BME280;52495;52.208;5.158;2022-12-07T06:44:10;101716.44;;;3.08;94.26
65758;BME280;52495;52.208;5.158;2022-12-07T06:46:37;101726.69;;;3.09;94.51
65758;BME280;52495;52.208;5.158;2022-12-07T06:49:04;101727.66;;;3.13;94.44
65758;BME280;52495;52.208;5.158;2022-12-07T06:51:33;101720.91;;;3.15;94.57
65758;BME280;52495;52.208;5.158;2022-12-07T06:54:02;101716.66;;;3.15;94.93
65758;BME280;52495;52.208;5.158;2022-12-07T06:56:28;101715.03;;;3.19;95.03
65758;BME280;52495;52.208;5.158;2022-12-07T06:58:55;101707.38;;;3.17;94.92
65758;BME280;52495;52.208;5.158;2022-12-07T07:01:22;101709.09;;;3.18;94.57
65758;BME280;52495;52.208;5.158;2022-12-07T07:03:49;101706.53;;;3.18;94.39
65758;BME280;52495;52.208;5.158;2022-12-07T07:06:15;101707.53;;;3.24;94.68
65758;BME280;52495;52.208;5.158;2022-12-07T07:08:43;101702.38;;;3.22;94.44
65758;BME280;52495;52.208;5.158;2022-12-07T07:11:10;101705.84;;;3.24;94.29
65758;BME280;52495;52.208;5.158;2022-12-07T07:13:37;101705.00;;;3.24;94.23
65758;BME280;52495;52.208;5.158;2022-12-07T07:16:05;101705.72;;;3.19;94.07
65758;BME280;52495;52.208;5.158;2022-12-07T07:18:32;101703.06;;;3.15;93.42
65758;BME280;52495;52.208;5.158;2022-12-07T07:20:58;101710.66;;;3.13;93.18
65758;BME280;52495;52.208;5.158;2022-12-07T07:23:26;101710.63;;;3.12;92.73
65758;BME280;52495;52.208;5.158;2022-12-07T07:25:54;101714.69;;;3.05;92.62
65758;BME280;52495;52.208;5.158;2022-12-07T07:28:22;101717.91;;;2.99;92.43
65758;BME280;52495;52.208;5.158;2022-12-07T07:30:49;101720.31;;;2.95;92.29
65758;BME280;52495;52.208;5.158;2022-12-07T07:33:16;101722.66;;;2.87;92.04
65758;BME280;52495;52.208;5.158;2022-12-07T07:35:42;101719.97;;;2.82;92.15
65758;BME280;52495;52.208;5.158;2022-12-07T07:38:09;101715.66;;;2.80;91.99
65758;BME280;52495;52.208;5.158;2022-12-07T07:40:36;101726.50;;;2.72;92.27
65758;BME280;52495;52.208;5.158;2022-12-07T07:43:04;101723.84;;;2.69;92.56
65758;BME280;52495;52.208;5.158;2022-12-07T07:45:31;101723.84;;;2.69;92.65
65758;BME280;52495;52.208;5.158;2022-12-07T07:47:57;101723.00;;;2.69;92.50
65758;BME280;52495;52.208;5.158;2022-12-07T07:50:24;101724.72;;;2.70;93.09
65758;BME280;52495;52.208;5.158;2022-12-07T07:52:51;101717.81;;;2.66;92.88
65758;BME280;52495;52.208;5.158;2022-12-07T07:55:18;101718.66;;;2.66;93.01
65758;BME280;52495;52.208;5.158;2022-12-07T07:57:46;101717.91;;;2.69;93.75
65758;BME280;52495;52.208;5.158;2022-12-07T08:00:15;101718.47;;;2.89;92.65
65758;BME280;52495;52.208;5.158;2022-12-07T08:02:43;101729.63;;;2.93;92.69
65758;BME280;52495;52.208;5.158;2022-12-07T08:05:12;101743.91;;;3.16;92.10
65758;BME280;52495;52.208;5.158;2022-12-07T08:07:39;101743.38;;;3.28;92.50
65758;BME280;52495;52.208;5.158;2022-12-07T08:10:08;101740.34;;;3.42;95.76
65758;BME280;52495;52.208;5.158;2022-12-07T08:12:37;101744.00;;;3.52;96.34
65758;BME280;52495;52.208;5.158;2022-12-07T08:15:27;101738.28;;;3.60;97.05
65758;BME280;52495;52.208;5.158;2022-12-07T08:17:54;101732.53;;;3.69;97.26
65758;BME280;52495;52.208;5.158;2022-12-07T08:20:21;101741.25;;;3.77;97.18
65758;BME280;52495;52.208;5.158;2022-12-07T08:22:48;101743.97;;;3.84;97.14
65758;BME280;52495;52.208;5.158;2022-12-07T08:25:15;101743.97;;;3.84;96.77
65758;BME280;52495;52.208;5.158;2022-12-07T08:27:42;101737.38;;;3.92;96.50
65758;BME280;52495;52.208;5.158;2022-12-07T08:30:09;101740.06;;;3.98;96.34
65758;BME280;52495;52.208;5.158;2022-12-07T08:32:37;101735.03;;;4.01;96.02
65758;BME280;52495;52.208;5.158;2022-12-07T08:35:04;101739.41;;;4.05;96.32
65758;BME280;52495;52.208;5.158;2022-12-07T08:37:31;101742.88;;;4.09;95.94
65758;BME280;52495;52.208;5.158;2022-12-07T08:39:58;101744.63;;;4.12;96.20
65758;BME280;52495;52.208;5.158;2022-12-07T08:42:24;101746.53;;;4.19;96.07
65758;BME280;52495;52.208;5.158;2022-12-07T08:44:55;101745.78;;;4.23;96.12
65758;BME280;52495;52.208;5.158;2022-12-07T08:47:22;101741.44;;;4.20;96.04
65758;BME280;52495;52.208;5.158;2022-12-07T08:49:52;101737.31;;;4.25;96.53
65758;BME280;52495;52.208;5.158;2022-12-07T08:52:20;101745.91;;;4.29;95.96
65758;BME280;52495;52.208;5.158;2022-12-07T08:54:47;101727.09;;;4.27;96.10
65758;BME280;52495;52.208;5.158;2022-12-07T08:57:14;101711.03;;;4.31;96.42
65758;BME280;52495;52.208;5.158;2022-12-07T08:59:41;101717.91;;;4.34;96.38
65758;BME280;52495;52.208;5.158;2022-12-07T09:02:08;101722.97;;;4.32;96.49
65758;BME280;52495;52.208;5.158;2022-12-07T09:04:34;101720.59;;;4.40;96.10
65758;BME280;52495;52.208;5.158;2022-12-07T09:07:02;101716.44;;;4.45;96.48
65758;BME280;52495;52.208;5.158;2022-12-07T09:09:29;101721.66;;;4.50;96.48
65758;BME280;52495;52.208;5.158;2022-12-07T09:11:56;101723.44;;;4.52;96.34
65758;BME280;52495;52.208;5.158;2022-12-07T09:14:23;101726.91;;;4.56;96.37
65758;BME280;52495;52.208;5.158;2022-12-07T09:16:49;101727.69;;;4.53;96.06
65758;BME280;52495;52.208;5.158;2022-12-07T09:19:16;101723.56;;;4.59;95.98
65758;BME280;52495;52.208;5.158;2022-12-07T09:21:43;101723.72;;;4.65;96.02
65758;BME280;52495;52.208;5.158;2022-12-07T09:24:11;101727.16;;;4.67;95.68
65758;BME280;52495;52.208;5.158;2022-12-07T09:26:38;101723.06;;;4.75;95.56
65758;BME280;52495;52.208;5.158;2022-12-07T09:29:05;101728.25;;;4.80;96.08
65758;BME280;52495;52.208;5.158;2022-12-07T09:31:32;101728.41;;;4.86;95.71
65758;BME280;52495;52.208;5.158;2022-12-07T09:34:00;101735.22;;;4.85;95.57
65758;BME280;52495;52.208;5.158;2022-12-07T09:36:28;101731.94;;;4.91;95.78
65758;BME280;52495;52.208;5.158;2022-12-07T09:38:55;101720.94;;;4.97;95.37
65758;BME280;52495;52.208;5.158;2022-12-07T09:41:25;101719.31;;;5.00;96.03
65758;BME280;52495;52.208;5.158;2022-12-07T09:43:59;101723.66;;;5.05;95.99
65758;BME280;52495;52.208;5.158;2022-12-07T09:46:27;101731.44;;;5.09;95.45
65758;BME280;52495;52.208;5.158;2022-12-07T09:48:54;101721.19;;;5.09;95.31
65758;BME280;52495;52.208;5.158;2022-12-07T09:51:23;101716.91;;;5.08;95.45
65758;BME280;52495;52.208;5.158;2022-12-07T09:53:51;101716.97;;;5.13;95.19
65758;BME280;52495;52.208;5.158;2022-12-07T09:56:19;101710.25;;;5.18;95.73
65758;BME280;52495;52.208;5.158;2022-12-07T09:58:48;101708.59;;;5.19;95.33
65758;BME280;52495;52.208;5.158;2022-12-07T10:01:17;101702.63;;;5.20;95.43
65758;BME280;52495;52.208;5.158;2022-12-07T10:03:48;101704.38;;;5.22;95.03
65758;BME280;52495;52.208;5.158;2022-12-07T10:06:16;101709.56;;;5.25;95.33
65758;BME280;52495;52.208;5.158;2022-12-07T10:08:43;101705.28;;;5.26;94.94
65758;BME280;52495;52.208;5.158;2022-12-07T10:11:10;101700.97;;;5.23;94.55
65758;BME280;52495;52.208;5.158;2022-12-07T10:13:38;101699.25;;;5.22;94.31
65758;BME280;52495;52.208;5.158;2022-12-07T10:16:28;101699.25;;;5.21;94.95
65758;BME280;52495;52.208;5.158;2022-12-07T10:18:56;101698.56;;;5.29;95.10
65758;BME280;52495;52.208;5.158;2022-12-07T10:21:24;101697.75;;;5.34;94.61
65758;BME280;52495;52.208;5.158;2022-12-07T10:24:03;101691.03;;;5.39;94.80
65758;BME280;52495;52.208;5.158;2022-12-07T10:26:33;101685.19;;;5.47;94.74
65758;BME280;52495;52.208;5.158;2022-12-07T10:29:02;101685.34;;;5.57;95.04
65758;BME280;52495;52.208;5.158;2022-12-07T10:31:31;101689.69;;;5.59;94.87
65758;BME280;52495;52.208;5.158;2022-12-07T10:34:00;101681.34;;;5.71;94.49
65758;BME280;52495;52.208;5.158;2022-12-07T10:36:33;101685.66;;;5.74;93.69
65758;BME280;52495;52.208;5.158;2022-12-07T10:39:03;101679.81;;;5.84;93.43
65758;BME280;52495;52.208;5.158;2022-12-07T10:41:30;101684.16;;;5.88;93.04
65758;BME280;52495;52.208;5.158;2022-12-07T10:43:57;101677.38;;;5.92;93.02
65758;BME280;52495;52.208;5.158;2022-12-07T10:46:40;101678.22;;;5.91;91.71
65758;BME280;52495;52.208;5.158;2022-12-07T10:49:36;101680.66;;;5.82;90.77
65758;BME280;52495;52.208;5.158;2022-12-07T10:52:17;101675.59;;;5.86;90.58
65758;BME280;52495;52.208;5.158;2022-12-07T10:54:48;101676.41;;;5.85;90.74
65758;BME280;52495;52.208;5.158;2022-12-07T10:57:30;101670.28;;;5.74;90.25
65758;BME280;52495;52.208;5.158;2022-12-07T11:00:13;101666.16;;;5.84;90.45
65758;BME280;52495;52.208;5.158;2022-12-07T11:03:05;101664.38;;;5.80;89.57
65758;BME280;52495;52.208;5.158;2022-12-07T11:05:39;101658.53;;;5.88;89.78
65758;BME280;52495;52.208;5.158;2022-12-07T11:09:49;101651.56;;;5.80;89.26
65758;BME280;52495;52.208;5.158;2022-12-07T11:12:27;101650.78;;;5.85;90.49
65758;BME280;52495;52.208;5.158;2022-12-07T11:19:32;101647.44;;;5.88;90.40
65758;BME280;52495;52.208;5.158;2022-12-07T11:22:04;101655.13;;;5.89;90.15
65758;BME280;52495;52.208;5.158;2022-12-07T11:24:40;101647.31;;;5.80;88.73
65758;BME280;52495;52.208;5.158;2022-12-07T11:27:21;101650.66;;;5.76;89.10
65758;BME280;52495;52.208;5.158;2022-12-07T11:29:59;101645.50;;;5.73;88.99
65758;BME280;52495;52.208;5.158;2022-12-07T11:32:42;101636.19;;;5.80;89.19
65758;BME280;52495;52.208;5.158;2022-12-07T11:35:19;101629.41;;;5.83;89.25
65758;BME280;52495;52.208;5.158;2022-12-07T11:37:49;101636.34;;;5.90;89.52
65758;BME280;52495;52.208;5.158;2022-12-07T11:40:21;101626.22;;;5.97;88.89
65758;BME280;52495;52.208;5.158;2022-12-07T11:42:57;101617.69;;;5.98;88.43
65758;BME280;52495;52.208;5.158;2022-12-07T11:45:27;101617.84;;;6.07;88.35
65758;BME280;52495;52.208;5.158;2022-12-07T11:47:58;101610.19;;;6.12;88.22
65758;BME280;52495;52.208;5.158;2022-12-07T11:50:33;101608.47;;;6.11;88.19
65758;BME280;52495;52.208;5.158;2022-12-07T11:53:05;101613.78;;;6.23;87.84
65758;BME280;52495;52.208;5.158;2022-12-07T11:55:44;101606.09;;;6.25;85.83
65758;BME280;52495;52.208;5.158;2022-12-07T11:58:23;101597.66;;;6.35;86.04
65758;BME280;52495;52.208;5.158;2022-12-07T12:01:11;101602.09;;;6.47;86.45
65758;BME280;52495;52.208;5.158;2022-12-07T12:03:43;101592.72;;;6.47;85.31
65758;BME280;52495;52.208;5.158;2022-12-07T12:06:13;101594.56;;;6.61;84.89
65758;BME280;52495;52.208;5.158;2022-12-07T12:08:43;101585.91;;;6.52;84.02
65758;BME280;52495;52.208;5.158;2022-12-07T12:11:22;101586.03;;;6.62;84.88
65758;BME280;52495;52.208;5.158;2022-12-07T12:14:21;101588.66;;;6.68;84.77
65758;BME280;52495;52.208;5.158;2022-12-07T12:20:13;101592.13;;;6.73;82.66
65758;BME280;52495;52.208;5.158;2022-12-07T12:22:47;101594.78;;;6.81;83.58
65758;BME280;52495;52.208;5.158;2022-12-07T12:25:21;101590.66;;;6.95;83.54
65758;BME280;52495;52.208;5.158;2022-12-07T12:27:49;101583.00;;;7.00;83.59
65758;BME280;52495;52.208;5.158;2022-12-07T12:30:34;101588.25;;;7.12;82.67
65758;BME280;52495;52.208;5.158;2022-12-07T12:33:13;101589.22;;;7.27;81.62
65758;BME280;52495;52.208;5.158;2022-12-07T12:35:41;101590.94;;;7.25;78.71
65758;BME280;52495;52.208;5.158;2022-12-07T12:38:27;101588.81;;;6.80;81.00
65758;BME280;52495;52.208;5.158;2022-12-07T12:41:00;101587.00;;;6.75;80.86
65758;BME280;52495;52.208;5.158;2022-12-07T12:43:44;101570.34;;;6.37;82.46
65758;BME280;52495;52.208;5.158;2022-12-07T12:46:47;101567.78;;;6.35;83.33
65758;BME280;52495;52.208;5.158;2022-12-07T12:49:34;101568.63;;;6.34;84.63
65758;BME280;52495;52.208;5.158;2022-12-07T12:55:26;101557.59;;;6.45;85.32
65758;BME280;52495;52.208;5.158;2022-12-07T13:01:37;101545.78;;;6.58;84.64
65758;BME280;52495;52.208;5.158;2022-12-07T13:04:21;101554.44;;;6.67;85.66
65758;BME280;52495;52.208;5.158;2022-12-07T13:06:49;101555.28;;;6.68;85.00
65758;BME280;52495;52.208;5.158;2022-12-07T13:09:20;101540.03;;;6.83;84.47
65758;BME280;52495;52.208;5.158;2022-12-07T13:11:56;101545.13;;;6.79;83.31
65758;BME280;52495;52.208;5.158;2022-12-07T13:14:54;101538.28;;;6.78;83.89
65758;BME280;52495;52.208;5.158;2022-12-07T13:17:57;101530.59;;;6.76;83.89
65758;BME280;52495;52.208;5.158;2022-12-07T13:20:47;101526.28;;;6.75;82.82
65758;BME280;52495;52.208;5.158;2022-12-07T13:23:20;101527.16;;;6.77;82.84
65758;BME280;52495;52.208;5.158;2022-12-07T13:25:54;101523.75;;;6.78;83.62
65758;BME280;52495;52.208;5.158;2022-12-07T13:28:25;101520.34;;;6.79;82.87
65758;BME280;52495;52.208;5.158;2022-12-07T13:31:01;101510.13;;;6.86;83.13
65758;BME280;52495;52.208;5.158;2022-12-07T13:33:30;101510.09;;;6.81;82.13